createdAt,value
2023-06-30T00:00:31.861Z,86.52
2023-06-30T00:01:29.849Z,86.63
2023-06-30T00:02:29.868Z,86.77
2023-06-30T00:03:29.920Z,86.83
2023-06-30T00:04:29.809Z,86.97
2023-06-30T00:05:29.748Z,87.07
2023-06-30T00:06:29.737Z,87.07
2023-06-30T00:07:29.758Z,87.37
2023-06-30T00:08:29.703Z,87.47
2023-06-30T00:09:29.687Z,87.57
2023-06-30T00:10:29.672Z,87.67
2023-06-30T00:11:29.652Z,87.77
2023-06-30T00:12:29.646Z,87.98
2023-06-30T00:13:29.648Z,88.07
2023-06-30T00:14:29.649Z,88.18
2023-06-30T00:15:29.725Z,88.18
2023-06-30T00:16:29.687Z,88.28
2023-06-30T00:17:29.641Z,88.28
2023-06-30T00:18:29.570Z,88.28
2023-06-30T00:19:29.558Z,88.38
2023-06-30T00:20:29.611Z,88.38
2023-06-30T00:21:29.527Z,88.48
2023-06-30T00:22:29.518Z,88.48
2023-06-30T00:23:29.492Z,88.58
2023-06-30T00:24:29.489Z,88.58
2023-06-30T00:25:29.476Z,88.58
2023-06-30T00:26:29.466Z,88.58
2023-06-30T00:27:29.444Z,88.68
2023-06-30T00:28:29.457Z,88.68
2023-06-30T00:29:29.417Z,88.78
2023-06-30T00:30:29.440Z,88.78
2023-06-30T00:31:29.484Z,88.98
2023-06-30T00:32:29.415Z,89.08
2023-06-30T00:33:29.369Z,89.08
2023-06-30T00:34:29.369Z,88.98
2023-06-30T00:35:29.340Z,88.98
2023-06-30T00:36:29.330Z,89.18
2023-06-30T00:37:29.304Z,88.98
2023-06-30T00:38:29.388Z,89.23
2023-06-30T00:39:29.283Z,89.03
2023-06-30T00:40:29.291Z,89.03
2023-06-30T00:41:29.255Z,88.92
2023-06-30T00:42:29.251Z,88.92
2023-06-30T00:43:29.235Z,89.12
2023-06-30T00:44:29.222Z,89.43
2023-06-30T00:45:29.273Z,89.43
2023-06-30T00:46:29.308Z,89.53
2023-06-30T00:47:29.193Z,89.53
2023-06-30T00:48:29.167Z,89.53
2023-06-30T00:49:29.155Z,89.43
2023-06-30T00:50:29.138Z,89.43
2023-06-30T00:51:29.123Z,89.63
2023-06-30T00:52:29.128Z,89.57
2023-06-30T00:53:29.093Z,89.67
2023-06-30T00:54:29.106Z,89.77
2023-06-30T00:55:29.066Z,89.87
2023-06-30T00:56:31.116Z,89.87
2023-06-30T00:57:29.050Z,89.97
2023-06-30T00:58:29.032Z,90.07
2023-06-30T00:59:29.020Z,90.17
2023-06-30T01:00:29.028Z,90.32
2023-06-30T01:01:29.008Z,90.32
2023-06-30T01:02:29.094Z,90.22
2023-06-30T01:03:29.189Z,90.11
2023-06-30T01:04:29.125Z,90.32
2023-06-30T01:05:29.130Z,90.42
2023-06-30T01:06:28.931Z,90.42
2023-06-30T01:07:29.030Z,90.62
2023-06-30T01:08:28.909Z,90.72
2023-06-30T01:09:28.949Z,90.72
2023-06-30T01:10:28.888Z,90.72
2023-06-30T01:11:28.886Z,90.86
2023-06-30T01:12:28.884Z,90.86
2023-06-30T01:13:28.840Z,90.97
2023-06-30T01:14:28.841Z,91.06
2023-06-30T01:15:28.997Z,91.06
2023-06-30T01:16:28.835Z,91.17
2023-06-30T01:17:28.798Z,91.27
2023-06-30T01:18:28.818Z,91.47
2023-06-30T01:19:28.777Z,91.82
2023-06-30T01:20:28.770Z,91.91
2023-06-30T01:21:28.734Z,92.12
2023-06-30T01:22:28.731Z,92.22
2023-06-30T01:23:28.726Z,92.32
2023-06-30T01:24:28.708Z,92.32
2023-06-30T01:25:28.745Z,92.32
2023-06-30T01:26:28.726Z,92.32
2023-06-30T01:27:28.659Z,92.32
2023-06-30T01:28:28.635Z,92.32
2023-06-30T01:29:28.648Z,92.42
2023-06-30T01:30:28.651Z,92.42
2023-06-30T01:31:28.613Z,92.42
2023-06-30T01:32:28.607Z,92.52
2023-06-30T01:33:28.579Z,92.52
2023-06-30T01:34:28.603Z,92.52
2023-06-30T01:35:28.564Z,92.72
2023-06-30T01:36:28.540Z,92.86
2023-06-30T01:37:28.529Z,92.97
2023-06-30T01:38:28.520Z,93.07
2023-06-30T01:39:28.519Z,92.97
2023-06-30T01:40:28.663Z,93.07
2023-06-30T01:41:28.485Z,93.07
2023-06-30T01:42:28.464Z,93.07
2023-06-30T01:43:28.454Z,93.17
2023-06-30T01:44:28.435Z,93.17
2023-06-30T01:45:28.427Z,93.07
2023-06-30T01:46:28.423Z,92.97
2023-06-30T01:47:28.425Z,92.97
2023-06-30T01:48:28.389Z,92.97
2023-06-30T01:49:28.364Z,92.93
2023-06-30T01:50:28.376Z,93.07
2023-06-30T01:51:28.342Z,93.07
2023-06-30T01:52:28.340Z,93.07
2023-06-30T01:53:28.313Z,93.17
2023-06-30T01:54:28.300Z,93.17
2023-06-30T01:55:28.291Z,93.27
2023-06-30T01:56:28.272Z,93.27
2023-06-30T01:57:28.260Z,93.27
2023-06-30T01:58:28.248Z,93.27
2023-06-30T01:59:28.255Z,93.17
2023-06-30T02:00:28.219Z,93.17
2023-06-30T02:01:28.231Z,93.27
2023-06-30T02:02:28.281Z,93.37
2023-06-30T02:03:28.304Z,93.37
2023-06-30T02:04:28.206Z,93.37
2023-06-30T02:05:28.192Z,93.48
2023-06-30T02:06:28.173Z,93.57
2023-06-30T02:07:28.152Z,93.57
2023-06-30T02:08:28.137Z,93.68
2023-06-30T02:09:38.806Z,93.68
2023-06-30T02:10:29.132Z,93.77
2023-06-30T02:11:28.095Z,93.88
2023-06-30T02:12:28.073Z,93.88
2023-06-30T02:13:28.059Z,93.77
2023-06-30T02:14:28.055Z,93.77
2023-06-30T02:15:28.032Z,93.88
2023-06-30T02:16:28.050Z,93.88
2023-06-30T02:17:28.084Z,93.88
2023-06-30T02:18:28.005Z,93.98
2023-06-30T02:19:27.980Z,93.98
2023-06-30T02:20:27.984Z,93.98
2023-06-30T02:21:27.988Z,93.88
2023-06-30T02:22:27.967Z,93.88
2023-06-30T02:23:27.930Z,93.88
2023-06-30T02:24:27.923Z,93.77
2023-06-30T02:25:27.903Z,93.68
2023-06-30T02:26:27.894Z,93.57
2023-06-30T02:27:29.025Z,93.57
2023-06-30T02:28:27.874Z,93.48
2023-06-30T02:29:27.868Z,93.48
2023-06-30T02:30:27.850Z,93.57
2023-06-30T02:31:27.915Z,93.57
2023-06-30T02:32:27.868Z,93.57
2023-06-30T02:33:27.807Z,93.68
2023-06-30T02:34:27.800Z,93.77
2023-06-30T02:35:27.804Z,93.77
2023-06-30T02:36:27.778Z,93.98
2023-06-30T02:37:27.765Z,93.98
2023-06-30T02:38:27.774Z,94.23
2023-06-30T02:39:27.733Z,94.38
2023-06-30T02:40:27.728Z,94.48
2023-06-30T02:41:27.713Z,94.48
2023-06-30T02:42:27.701Z,94.48
2023-06-30T02:43:27.690Z,94.38
2023-06-30T02:44:27.674Z,94.18
2023-06-30T02:45:27.799Z,94.08
2023-06-30T02:46:27.744Z,94.18
2023-06-30T02:47:27.676Z,94.18
2023-06-30T02:48:27.632Z,94.18
2023-06-30T02:49:27.605Z,94.18
2023-06-30T02:50:27.600Z,93.92
2023-06-30T02:51:27.610Z,93.92
2023-06-30T02:52:27.568Z,93.92
2023-06-30T02:53:27.563Z,94.02
2023-06-30T02:54:27.593Z,94.12
2023-06-30T02:55:27.540Z,94.12
2023-06-30T02:56:27.528Z,94.02
2023-06-30T02:57:27.504Z,94.02
2023-06-30T02:58:27.581Z,93.82
2023-06-30T02:59:27.486Z,93.72
2023-06-30T03:00:27.577Z,93.82
2023-06-30T03:01:27.567Z,93.92
2023-06-30T03:02:27.877Z,94.02
2023-06-30T03:03:27.534Z,94.02
2023-06-30T03:04:27.419Z,94.02
2023-06-30T03:05:27.407Z,94.12
2023-06-30T03:06:27.402Z,94.12
2023-06-30T03:07:27.402Z,94.12
2023-06-30T03:08:27.372Z,94.23
2023-06-30T03:09:27.377Z,94.32
2023-06-30T03:10:27.378Z,94.43
2023-06-30T03:11:27.337Z,94.43
2023-06-30T03:12:27.336Z,94.32
2023-06-30T03:13:27.311Z,94.43
2023-06-30T03:14:27.299Z,94.53
2023-06-30T03:15:27.424Z,94.43
2023-06-30T03:16:27.297Z,94.43
2023-06-30T03:17:27.278Z,94.43
2023-06-30T03:18:27.261Z,94.43
2023-06-30T03:19:27.238Z,94.43
2023-06-30T03:20:27.244Z,94.32
2023-06-30T03:21:27.241Z,94.32
2023-06-30T03:22:27.191Z,94.43
2023-06-30T03:23:27.231Z,94.43
2023-06-30T03:24:27.252Z,94.32
2023-06-30T03:25:27.166Z,94.53
2023-06-30T03:26:27.240Z,94.73
2023-06-30T03:27:27.140Z,94.59
2023-06-30T03:28:27.122Z,94.53
2023-06-30T03:29:27.105Z,94.48
2023-06-30T03:30:27.123Z,94.53
2023-06-30T03:31:27.225Z,94.53
2023-06-30T03:32:27.078Z,94.53
2023-06-30T03:33:27.074Z,94.43
2023-06-30T03:34:27.056Z,94.53
2023-06-30T03:35:27.044Z,94.53
2023-06-30T03:36:27.028Z,94.53
2023-06-30T03:37:27.019Z,94.53
2023-06-30T03:38:27.022Z,94.73
2023-06-30T03:39:26.995Z,94.73
2023-06-30T03:40:27.005Z,94.73
2023-06-30T03:41:26.973Z,94.83
2023-06-30T03:42:26.997Z,94.83
2023-06-30T03:43:26.935Z,94.73
2023-06-30T03:44:26.935Z,94.73
2023-06-30T03:45:26.926Z,94.73
2023-06-30T03:46:26.935Z,94.63
2023-06-30T03:47:26.921Z,94.63
2023-06-30T03:48:26.885Z,94.63
2023-06-30T03:49:26.869Z,94.73
2023-06-30T03:50:26.861Z,94.63
2023-06-30T03:51:26.842Z,94.53
2023-06-30T03:52:26.832Z,94.53
2023-06-30T03:53:26.839Z,94.53
2023-06-30T03:54:26.812Z,94.63
2023-06-30T03:55:26.799Z,94.73
2023-06-30T03:56:26.792Z,94.73
2023-06-30T03:57:26.839Z,94.83
2023-06-30T03:58:26.797Z,94.93
2023-06-30T03:59:26.744Z,94.93
2023-06-30T04:00:26.747Z,94.93
2023-06-30T04:01:26.725Z,94.83
2023-06-30T04:02:26.889Z,94.83
2023-06-30T04:03:27.848Z,94.83
2023-06-30T04:04:26.816Z,94.83
2023-06-30T04:05:26.686Z,94.83
2023-06-30T04:06:26.657Z,94.73
2023-06-30T04:07:26.770Z,94.63
2023-06-30T04:08:26.794Z,94.63
2023-06-30T04:09:26.627Z,94.63
2023-06-30T04:10:26.686Z,94.68
2023-06-30T04:11:26.615Z,94.89
2023-06-30T04:12:26.590Z,94.89
2023-06-30T04:13:26.597Z,94.89
2023-06-30T04:14:26.600Z,94.79
2023-06-30T04:15:26.558Z,94.68
2023-06-30T04:16:26.625Z,94.68
2023-06-30T04:17:26.531Z,94.68
2023-06-30T04:18:26.516Z,94.68
2023-06-30T04:19:26.510Z,94.59
2023-06-30T04:20:26.494Z,94.68
2023-06-30T04:21:26.476Z,94.79
2023-06-30T04:22:26.466Z,94.79
2023-06-30T04:23:26.445Z,94.68
2023-06-30T04:24:26.432Z,94.59
2023-06-30T04:25:26.426Z,94.59
2023-06-30T04:26:26.420Z,94.59
2023-06-30T04:27:26.407Z,94.68
2023-06-30T04:28:26.416Z,94.79
2023-06-30T04:29:26.383Z,94.79
2023-06-30T04:30:26.408Z,94.89
2023-06-30T04:31:26.371Z,94.89
2023-06-30T04:32:26.357Z,94.79
2023-06-30T04:33:26.320Z,94.59
2023-06-30T04:34:26.323Z,94.43
2023-06-30T04:35:26.673Z,94.38
2023-06-30T04:36:26.288Z,94.48
2023-06-30T04:37:26.274Z,94.48
2023-06-30T04:38:26.283Z,94.48
2023-06-30T04:39:26.256Z,94.48
2023-06-30T04:40:26.254Z,94.38
2023-06-30T04:41:26.239Z,94.28
2023-06-30T04:42:26.222Z,94.38
2023-06-30T04:43:26.207Z,94.38
2023-06-30T04:44:26.194Z,94.48
2023-06-30T04:45:26.179Z,94.79
2023-06-30T04:46:26.330Z,95.49
2023-06-30T04:47:26.204Z,95.59
2023-06-30T04:48:26.146Z,95.79
2023-06-30T04:49:26.128Z,96.10
2023-06-30T04:50:26.134Z,96.10
2023-06-30T04:51:26.107Z,96.80
2023-06-30T04:52:26.088Z,97.41
2023-06-30T04:53:26.084Z,97.81
2023-06-30T04:54:26.072Z,98.22
2023-06-30T04:55:26.059Z,98.42
2023-06-30T04:56:26.075Z,98.62
2023-06-30T04:57:26.035Z,98.93
2023-06-30T04:58:26.022Z,99.02
2023-06-30T04:59:26.007Z,99.13
2023-06-30T05:00:26.000Z,99.27
2023-06-30T05:01:26.014Z,99.38
2023-06-30T05:02:26.011Z,99.38
2023-06-30T05:03:26.022Z,99.48
2023-06-30T05:04:25.953Z,99.58
2023-06-30T05:05:25.946Z,99.68
2023-06-30T05:06:25.915Z,99.78
2023-06-30T05:07:25.972Z,99.99
2023-06-30T05:08:25.894Z,99.99
2023-06-30T05:09:25.877Z,99.99
2023-06-30T05:10:25.862Z,99.99
2023-06-30T05:11:25.862Z,99.99
2023-06-30T05:12:25.840Z,99.99
2023-06-30T05:13:25.822Z,99.99
2023-06-30T05:14:25.826Z,99.99
2023-06-30T05:15:25.821Z,99.99
2023-06-30T05:16:25.891Z,99.99
2023-06-30T05:17:26.020Z,99.99
2023-06-30T05:18:25.811Z,99.99
2023-06-30T05:19:25.749Z,99.99
2023-06-30T05:20:25.886Z,99.99
2023-06-30T05:21:25.721Z,99.99
2023-06-30T05:22:25.719Z,99.99
2023-06-30T05:23:25.702Z,99.99
2023-06-30T05:24:25.695Z,99.99
2023-06-30T05:25:25.681Z,99.99
2023-06-30T05:26:25.677Z,99.99
2023-06-30T05:27:25.677Z,99.99
2023-06-30T05:28:25.632Z,99.99
2023-06-30T05:29:26.990Z,99.99
2023-06-30T05:30:25.609Z,99.99
2023-06-30T05:31:25.651Z,99.99
2023-06-30T05:32:25.623Z,99.99
2023-06-30T05:33:25.580Z,99.99
2023-06-30T05:34:25.596Z,99.99
2023-06-30T05:35:25.548Z,99.99
2023-06-30T05:36:25.544Z,99.99
2023-06-30T05:37:25.571Z,99.99
2023-06-30T05:38:25.497Z,99.99
2023-06-30T05:39:25.502Z,99.99
2023-06-30T05:40:25.478Z,99.99
2023-06-30T05:41:25.465Z,99.99
2023-06-30T05:42:25.467Z,99.99
2023-06-30T05:43:25.442Z,99.99
2023-06-30T05:44:25.511Z,99.99
2023-06-30T05:45:25.414Z,99.99
2023-06-30T05:46:25.460Z,99.99
2023-06-30T05:47:25.418Z,99.99
2023-06-30T05:48:25.398Z,99.99
2023-06-30T05:49:25.355Z,99.99
2023-06-30T05:50:25.402Z,99.99
2023-06-30T05:51:25.345Z,99.99
2023-06-30T05:52:25.317Z,99.99
2023-06-30T05:53:25.321Z,99.99
2023-06-30T05:54:25.313Z,99.99
2023-06-30T05:55:25.283Z,99.99
2023-06-30T05:56:25.278Z,99.99
2023-06-30T05:57:25.258Z,99.99
2023-06-30T05:58:25.257Z,99.99
2023-06-30T05:59:25.239Z,99.99
2023-06-30T06:00:25.217Z,99.99
2023-06-30T06:01:25.217Z,99.99
2023-06-30T06:02:25.495Z,99.99
2023-06-30T06:03:25.454Z,99.99
2023-06-30T06:04:25.383Z,99.99
2023-06-30T06:05:25.271Z,99.99
2023-06-30T06:06:25.170Z,99.99
2023-06-30T06:07:25.154Z,99.99
2023-06-30T06:08:25.121Z,99.99
2023-06-30T06:09:25.100Z,99.99
2023-06-30T06:10:25.101Z,99.99
2023-06-30T06:11:25.081Z,99.99
2023-06-30T06:12:25.076Z,99.99
2023-06-30T06:13:25.085Z,99.99
2023-06-30T06:14:25.043Z,99.99
2023-06-30T06:15:25.032Z,99.99
2023-06-30T06:16:25.107Z,99.99
2023-06-30T06:17:25.022Z,99.99
2023-06-30T06:18:25.000Z,99.99
2023-06-30T06:19:24.976Z,99.99
2023-06-30T06:20:24.975Z,99.99
2023-06-30T06:21:24.947Z,99.99
2023-06-30T06:22:24.969Z,99.99
2023-06-30T06:23:24.924Z,99.99
2023-06-30T06:24:24.930Z,99.99
2023-06-30T06:25:24.898Z,99.99
2023-06-30T06:26:24.913Z,99.99
2023-06-30T06:27:24.895Z,99.99
2023-06-30T06:28:24.864Z,99.99
2023-06-30T06:29:24.850Z,99.99
2023-06-30T06:30:24.838Z,99.99
2023-06-30T06:31:24.884Z,99.99
2023-06-30T06:32:24.830Z,99.99
2023-06-30T06:33:24.847Z,99.99
2023-06-30T06:34:24.802Z,99.99
2023-06-30T06:35:24.763Z,99.99
2023-06-30T06:36:24.779Z,99.99
2023-06-30T06:37:24.752Z,99.99
2023-06-30T06:38:24.800Z,99.99
2023-06-30T06:39:24.721Z,99.99
2023-06-30T06:40:24.705Z,99.99
2023-06-30T06:41:24.709Z,99.99
2023-06-30T06:42:24.706Z,99.99
2023-06-30T06:43:24.669Z,99.99
2023-06-30T06:44:24.654Z,99.99
2023-06-30T06:45:24.644Z,99.99
2023-06-30T06:46:24.669Z,99.99
2023-06-30T06:47:24.661Z,99.99
2023-06-30T06:48:24.673Z,99.99
2023-06-30T06:49:24.592Z,99.99
2023-06-30T06:50:24.589Z,99.99
2023-06-30T06:51:24.582Z,99.99
2023-06-30T06:52:24.540Z,99.99
2023-06-30T06:53:24.542Z,99.99
2023-06-30T06:54:24.573Z,99.99
2023-06-30T06:55:24.520Z,99.99
2023-06-30T06:56:24.498Z,99.99
2023-06-30T06:57:24.494Z,99.99
2023-06-30T06:58:24.475Z,99.99
2023-06-30T06:59:24.465Z,99.99
2023-06-30T07:00:24.461Z,99.99
2023-06-30T07:01:24.464Z,99.99
2023-06-30T07:02:24.460Z,99.99
2023-06-30T07:03:24.502Z,99.99
2023-06-30T07:04:24.397Z,99.99
2023-06-30T07:05:24.381Z,99.99
2023-06-30T07:06:24.369Z,99.99
2023-06-30T07:07:24.373Z,99.99
2023-06-30T07:08:24.340Z,99.99
2023-06-30T07:09:24.344Z,99.99
2023-06-30T07:10:24.359Z,99.99
2023-06-30T07:11:24.297Z,99.99
2023-06-30T07:12:24.295Z,99.99
2023-06-30T07:13:24.273Z,99.99
2023-06-30T07:14:24.266Z,99.99
2023-06-30T07:15:24.263Z,99.99
2023-06-30T07:16:24.272Z,99.99
2023-06-30T07:17:24.243Z,99.99
2023-06-30T07:18:24.359Z,99.99
2023-06-30T07:19:24.204Z,99.99
2023-06-30T07:20:24.181Z,99.99
2023-06-30T07:21:24.180Z,99.99
2023-06-30T07:22:24.188Z,99.99
2023-06-30T07:23:26.988Z,99.99
2023-06-30T07:24:24.865Z,99.99
2023-06-30T07:25:24.125Z,99.99
2023-06-30T07:26:24.142Z,99.99
2023-06-30T07:27:24.107Z,99.99
2023-06-30T07:28:24.082Z,99.99
2023-06-30T07:29:24.063Z,99.99
2023-06-30T07:30:24.063Z,99.99
2023-06-30T07:31:24.069Z,99.99
2023-06-30T07:32:24.059Z,99.99
2023-06-30T07:33:24.045Z,99.99
2023-06-30T07:34:24.010Z,99.99
2023-06-30T07:35:23.991Z,99.99
2023-06-30T07:36:23.974Z,99.99
2023-06-30T07:37:23.968Z,99.99
2023-06-30T07:38:23.945Z,99.99
2023-06-30T07:39:23.931Z,99.99
2023-06-30T07:40:24.581Z,99.99
2023-06-30T07:41:23.956Z,99.99
2023-06-30T07:42:23.938Z,99.99
2023-06-30T07:43:23.902Z,99.99
2023-06-30T07:44:23.870Z,99.99
2023-06-30T07:45:23.859Z,99.99
2023-06-30T07:46:23.946Z,99.99
2023-06-30T07:47:23.874Z,99.99
2023-06-30T07:48:24.026Z,99.99
2023-06-30T07:49:23.810Z,99.99
2023-06-30T07:50:23.826Z,99.99
2023-06-30T07:51:23.784Z,99.99
2023-06-30T07:52:23.762Z,99.99
2023-06-30T07:53:23.762Z,99.99
2023-06-30T07:54:23.746Z,99.99
2023-06-30T07:55:23.735Z,99.99
2023-06-30T07:56:23.727Z,99.99
2023-06-30T07:57:23.709Z,99.99
2023-06-30T07:58:23.764Z,99.99
2023-06-30T07:59:23.670Z,99.99
2023-06-30T08:00:23.710Z,99.99
2023-06-30T08:01:23.659Z,99.99
2023-06-30T08:02:23.815Z,99.99
2023-06-30T08:03:23.933Z,99.99
2023-06-30T08:04:24.005Z,99.99
2023-06-30T08:05:23.780Z,99.99
2023-06-30T08:06:23.596Z,99.99
2023-06-30T08:07:48.368Z,99.99
2023-06-30T08:08:24.589Z,99.99
2023-06-30T08:09:23.549Z,99.99
2023-06-30T08:10:23.604Z,99.99
2023-06-30T08:11:23.550Z,99.99
2023-06-30T08:12:23.523Z,99.99
2023-06-30T08:13:23.500Z,99.99
2023-06-30T08:14:23.512Z,99.99
2023-06-30T08:15:23.488Z,99.99
2023-06-30T08:16:23.480Z,99.99
2023-06-30T08:17:31.187Z,99.99
2023-06-30T08:18:32.427Z,99.99
2023-06-30T08:19:48.197Z,99.99
2023-06-30T08:20:24.957Z,99.99
2023-06-30T08:21:23.514Z,99.99
2023-06-30T08:22:23.393Z,99.99
2023-06-30T08:23:23.367Z,99.99
2023-06-30T08:24:23.386Z,99.99
2023-06-30T08:25:23.335Z,99.99
2023-06-30T08:26:23.322Z,99.99
2023-06-30T08:27:23.325Z,99.99
2023-06-30T08:28:23.318Z,99.99
2023-06-30T08:29:23.293Z,99.99
2023-06-30T08:30:25.283Z,99.99
2023-06-30T08:31:23.283Z,99.99
2023-06-30T08:32:23.299Z,99.99
2023-06-30T08:33:39.182Z,99.99
2023-06-30T08:34:24.290Z,99.99
2023-06-30T08:35:23.205Z,99.99
2023-06-30T08:36:23.194Z,99.99
2023-06-30T08:37:23.203Z,99.99
2023-06-30T08:38:23.166Z,99.99
2023-06-30T08:39:23.157Z,99.99
2023-06-30T08:40:23.154Z,99.99
2023-06-30T08:41:23.136Z,99.99
2023-06-30T08:42:23.127Z,99.99
2023-06-30T08:43:23.109Z,99.99
2023-06-30T08:44:23.126Z,99.99
2023-06-30T08:45:23.087Z,99.99
2023-06-30T08:46:23.153Z,99.99
2023-06-30T08:47:23.097Z,99.99
2023-06-30T08:48:23.055Z,99.99
2023-06-30T08:49:23.034Z,99.99
2023-06-30T08:50:23.018Z,99.99
2023-06-30T08:51:23.003Z,99.99
2023-06-30T08:52:23.015Z,99.99
2023-06-30T08:53:22.978Z,99.99
2023-06-30T08:54:22.971Z,99.99
2023-06-30T08:55:22.961Z,99.99
2023-06-30T08:56:22.939Z,99.99
2023-06-30T08:57:22.934Z,99.99
2023-06-30T08:58:26.399Z,99.99
2023-06-30T08:59:22.927Z,99.99
2023-06-30T09:00:22.905Z,99.99
2023-06-30T09:01:23.017Z,99.99
2023-06-30T09:02:23.104Z,99.99
2023-06-30T09:03:23.046Z,99.99
2023-06-30T09:04:22.845Z,99.99
2023-06-30T09:05:22.897Z,99.99
2023-06-30T09:06:22.824Z,99.93
2023-06-30T09:07:22.965Z,99.93
2023-06-30T09:08:22.854Z,99.93
2023-06-30T09:09:22.779Z,99.93
2023-06-30T09:10:22.775Z,99.93
2023-06-30T09:11:22.756Z,99.99
2023-06-30T09:12:22.744Z,99.99
2023-06-30T09:13:22.744Z,99.99
2023-06-30T09:14:22.711Z,99.99
2023-06-30T09:15:22.701Z,99.99
2023-06-30T09:16:22.796Z,99.93
2023-06-30T09:17:22.750Z,99.99
2023-06-30T09:18:22.686Z,99.99
2023-06-30T09:19:22.654Z,99.99
2023-06-30T09:20:22.663Z,99.99
2023-06-30T09:21:25.468Z,99.99
2023-06-30T09:22:52.194Z,99.99
2023-06-30T09:23:23.632Z,99.99
2023-06-30T09:24:22.637Z,99.99
2023-06-30T09:25:22.618Z,99.99
2023-06-30T09:26:22.577Z,99.99
2023-06-30T09:27:22.536Z,99.99
2023-06-30T09:28:22.524Z,99.99
2023-06-30T09:29:22.519Z,99.99
2023-06-30T09:30:22.497Z,99.99
2023-06-30T09:31:22.535Z,99.99
2023-06-30T09:32:22.536Z,99.99
2023-06-30T09:33:22.486Z,99.99
2023-06-30T09:34:22.498Z,99.99
2023-06-30T09:35:22.433Z,99.99
2023-06-30T09:36:22.420Z,99.99
2023-06-30T09:37:22.413Z,99.99
2023-06-30T09:38:22.406Z,99.99
2023-06-30T09:39:22.394Z,99.99
2023-06-30T09:40:22.375Z,99.99
2023-06-30T09:41:22.348Z,99.99
2023-06-30T09:42:22.348Z,99.99
2023-06-30T09:43:22.340Z,99.99
2023-06-30T09:44:22.333Z,99.99
2023-06-30T09:45:22.308Z,99.99
2023-06-30T09:46:22.369Z,99.99
2023-06-30T09:47:22.331Z,99.99
2023-06-30T09:48:22.257Z,99.99
2023-06-30T09:49:22.253Z,99.99
2023-06-30T09:50:22.274Z,99.99
2023-06-30T09:51:22.241Z,99.99
2023-06-30T09:52:22.207Z,99.13
2023-06-30T09:53:22.202Z,99.24
2023-06-30T09:54:39.233Z,99.33
2023-06-30T09:55:23.198Z,99.33
2023-06-30T09:56:22.160Z,99.39
2023-06-30T09:57:22.150Z,99.19
2023-06-30T09:58:22.196Z,99.29
2023-06-30T09:59:22.134Z,99.39
2023-06-30T10:00:35.658Z,99.49
2023-06-30T10:01:23.131Z,98.38
2023-06-30T10:02:22.130Z,97.38
2023-06-30T10:03:22.409Z,96.97
2023-06-30T10:04:22.053Z,96.97
2023-06-30T10:05:22.049Z,97.23
2023-06-30T10:06:22.054Z,97.23
2023-06-30T10:07:22.078Z,97.33
2023-06-30T10:08:22.003Z,97.53
2023-06-30T10:09:21.988Z,97.03
2023-06-30T10:10:21.987Z,97.43
2023-06-30T10:11:21.969Z,96.88
2023-06-30T10:12:21.949Z,95.27
2023-06-30T10:13:21.958Z,95.27
2023-06-30T10:14:21.921Z,94.16
2023-06-30T10:15:21.937Z,94.16
2023-06-30T10:16:21.938Z,94.76
2023-06-30T10:17:21.939Z,94.21
2023-06-30T10:18:21.909Z,93.91
2023-06-30T10:19:21.867Z,94.21
2023-06-30T10:20:27.789Z,94.21
2023-06-30T10:21:22.862Z,94.12
2023-06-30T10:22:21.888Z,93.81
2023-06-30T10:23:22.167Z,94.01
2023-06-30T10:24:21.820Z,94.87
2023-06-30T10:25:21.793Z,95.48
2023-06-30T10:26:21.777Z,95.88
2023-06-30T10:27:21.761Z,95.84
2023-06-30T10:28:21.749Z,94.93
2023-06-30T10:29:21.730Z,94.43
2023-06-30T10:30:21.722Z,94.43
2023-06-30T10:31:21.714Z,93.82
2023-06-30T10:32:21.856Z,92.06
2023-06-30T10:33:21.773Z,91.75
2023-06-30T10:34:21.666Z,91.46
2023-06-30T10:35:21.655Z,91.15
2023-06-30T10:36:21.642Z,91.11
2023-06-30T10:37:21.625Z,92.11
2023-06-30T10:38:21.644Z,90.50
2023-06-30T10:39:21.610Z,89.80
2023-06-30T10:40:21.590Z,90.00
2023-06-30T10:41:21.571Z,89.90
2023-06-30T10:42:21.568Z,89.20
2023-06-30T10:43:21.588Z,89.80
2023-06-30T10:44:21.554Z,90.30
2023-06-30T10:45:21.546Z,91.01
2023-06-30T10:46:21.553Z,90.70
2023-06-30T10:47:21.512Z,90.00
2023-06-30T10:48:21.535Z,90.11
2023-06-30T10:49:21.486Z,89.30
2023-06-30T10:50:21.493Z,89.80
2023-06-30T10:51:21.468Z,90.61
2023-06-30T10:52:21.451Z,91.31
2023-06-30T10:53:21.453Z,90.91
2023-06-30T10:54:21.490Z,89.70
2023-06-30T10:55:21.431Z,89.84
2023-06-30T10:56:21.401Z,90.05
2023-06-30T10:57:21.376Z,89.84
2023-06-30T10:58:21.366Z,90.85
2023-06-30T10:59:21.353Z,91.09
2023-06-30T11:00:21.361Z,91.50
2023-06-30T11:01:21.324Z,90.99
2023-06-30T11:02:21.319Z,89.48
2023-06-30T11:03:21.493Z,89.89
2023-06-30T11:04:21.393Z,90.79
2023-06-30T11:05:21.274Z,91.39
2023-06-30T11:06:21.263Z,90.79
2023-06-30T11:07:21.295Z,91.19
2023-06-30T11:08:21.245Z,90.99
2023-06-30T11:09:21.229Z,91.46
2023-06-30T11:10:21.250Z,91.86
2023-06-30T11:11:21.192Z,91.86
2023-06-30T11:12:21.187Z,91.91
2023-06-30T11:13:21.185Z,91.61
2023-06-30T11:14:21.159Z,91.27
2023-06-30T11:15:21.146Z,90.66
2023-06-30T11:16:21.128Z,90.06
2023-06-30T11:17:21.201Z,90.42
2023-06-30T11:18:21.233Z,90.72
2023-06-30T11:19:21.134Z,90.02
2023-06-30T11:20:21.085Z,89.62
2023-06-30T11:21:21.072Z,90.22
2023-06-30T11:22:21.047Z,90.02
2023-06-30T11:23:21.041Z,89.11
2023-06-30T11:24:21.048Z,88.71
2023-06-30T11:25:21.016Z,89.22
2023-06-30T11:26:21.023Z,88.91
2023-06-30T11:27:21.031Z,89.22
2023-06-30T11:28:20.984Z,89.56
2023-06-30T11:29:20.978Z,89.76
2023-06-30T11:30:20.947Z,89.66
2023-06-30T11:31:20.955Z,90.36
2023-06-30T11:32:20.980Z,90.30
2023-06-30T11:33:20.912Z,90.61
2023-06-30T11:34:20.898Z,90.50
2023-06-30T11:35:20.888Z,90.50
2023-06-30T11:36:20.884Z,90.11
2023-06-30T11:37:20.863Z,90.70
2023-06-30T11:38:20.874Z,90.25
2023-06-30T11:39:20.853Z,90.55
2023-06-30T11:40:20.820Z,91.15
2023-06-30T11:41:20.836Z,91.05
2023-06-30T11:42:20.825Z,91.35
2023-06-30T11:43:20.778Z,91.15
2023-06-30T11:44:20.770Z,89.95
2023-06-30T11:45:20.769Z,90.45
2023-06-30T11:46:20.832Z,90.55
2023-06-30T11:47:20.829Z,90.95
2023-06-30T11:48:20.721Z,89.84
2023-06-30T11:49:20.705Z,89.59
2023-06-30T11:50:21.498Z,89.18
2023-06-30T11:51:20.687Z,89.84
2023-06-30T11:52:20.678Z,89.84
2023-06-30T11:53:20.661Z,90.05
2023-06-30T11:54:20.656Z,90.55
2023-06-30T11:55:20.626Z,91.05
2023-06-30T11:56:20.612Z,90.95
2023-06-30T11:57:20.613Z,90.85
2023-06-30T11:58:20.665Z,90.65
2023-06-30T11:59:20.583Z,90.81
2023-06-30T12:00:20.653Z,91.71
2023-06-30T12:01:20.582Z,91.41
2023-06-30T12:02:20.600Z,91.61
2023-06-30T12:03:20.594Z,90.30
2023-06-30T12:04:20.763Z,90.30
2023-06-30T12:05:20.508Z,90.00
2023-06-30T12:06:20.480Z,90.50
2023-06-30T12:07:20.523Z,89.06
2023-06-30T12:08:20.466Z,86.88
2023-06-30T12:09:20.445Z,87.95
2023-06-30T12:10:20.438Z,88.35
2023-06-30T12:11:20.425Z,87.85
2023-06-30T12:12:20.415Z,86.94
2023-06-30T12:13:20.392Z,86.74
2023-06-30T12:14:20.405Z,86.14
2023-06-30T12:15:20.416Z,87.04
2023-06-30T12:16:20.414Z,87.55
2023-06-30T12:17:20.431Z,86.04
2023-06-30T12:18:20.333Z,86.48
2023-06-30T12:19:20.328Z,86.38
2023-06-30T12:20:20.319Z,86.58
2023-06-30T12:21:20.298Z,86.99
2023-06-30T12:22:20.287Z,86.28
2023-06-30T12:23:20.266Z,87.08
2023-06-30T12:24:20.262Z,87.19
2023-06-30T12:25:20.242Z,87.69
2023-06-30T12:26:20.227Z,88.29
2023-06-30T12:27:20.220Z,88.49
2023-06-30T12:28:20.195Z,88.29
2023-06-30T12:29:20.194Z,90.11
2023-06-30T12:30:20.209Z,88.90
2023-06-30T12:31:20.192Z,89.10
2023-06-30T12:32:20.167Z,88.29
2023-06-30T12:33:20.149Z,88.09
2023-06-30T12:34:20.186Z,88.70
2023-06-30T12:35:20.117Z,89.40
2023-06-30T12:36:20.104Z,89.50
2023-06-30T12:37:20.090Z,89.20
2023-06-30T12:38:20.074Z,89.30
2023-06-30T12:39:20.063Z,88.90
2023-06-30T12:40:20.052Z,87.19
2023-06-30T12:41:20.079Z,87.39
2023-06-30T12:42:20.041Z,88.29
2023-06-30T12:43:20.012Z,89.50
2023-06-30T12:44:20.350Z,87.59
2023-06-30T12:45:19.998Z,86.58
2023-06-30T12:46:20.054Z,86.88
2023-06-30T12:47:19.993Z,87.29
2023-06-30T12:48:19.971Z,88.39
2023-06-30T12:49:19.981Z,88.19
2023-06-30T12:50:19.965Z,87.69
2023-06-30T12:51:19.938Z,87.99
2023-06-30T12:52:19.920Z,87.99